createdAt,value
2023-03-06T00:01:31.053Z,7.88
2023-03-06T00:04:00.143Z,8.07
2023-03-06T00:06:29.907Z,10.00
2023-03-06T00:09:00.121Z,9.80
2023-03-06T00:11:29.143Z,9.52
2023-03-06T00:13:58.532Z,8.25
2023-03-06T00:16:28.059Z,8.65
2023-03-06T00:18:58.571Z,8.20
2023-03-06T00:21:28.745Z,9.63
2023-03-06T00:23:57.866Z,11.05
2023-03-06T00:26:26.904Z,11.63
2023-03-06T00:28:56.229Z,9.68
2023-03-06T00:31:25.354Z,10.63
2023-03-06T00:33:54.851Z,10.25
2023-03-06T00:36:25.562Z,11.30
2023-03-06T00:38:54.839Z,9.63
2023-03-06T00:41:24.090Z,11.68
2023-03-06T00:43:53.517Z,10.90
2023-03-06T00:46:22.587Z,8.52
2023-03-06T00:48:51.927Z,9.80
2023-03-06T00:51:24.833Z,10.00
2023-03-06T00:53:54.094Z,10.82
2023-03-06T00:56:23.263Z,8.82
2023-03-06T00:58:52.541Z,10.25
2023-03-06T01:01:21.851Z,11.80
2023-03-06T01:03:53.306Z,12.10
2023-03-06T01:06:24.871Z,10.95
2023-03-06T01:08:54.242Z,11.93
2023-03-06T01:11:23.468Z,11.00
2023-03-06T01:13:52.536Z,10.73
2023-03-06T01:16:22.710Z,8.75
2023-03-06T01:18:52.111Z,11.40
2023-03-06T01:21:21.833Z,11.40
2023-03-06T01:23:52.488Z,9.68
2023-03-06T01:26:21.751Z,9.90
2023-03-06T01:28:50.901Z,11.80
2023-03-06T01:31:22.168Z,10.20
2023-03-06T01:33:51.826Z,8.55
2023-03-06T01:36:21.009Z,11.05
2023-03-06T01:38:50.162Z,12.30
2023-03-06T01:41:21.564Z,13.45
2023-03-06T01:43:51.073Z,10.05
2023-03-06T01:46:42.207Z,10.90
2023-03-06T01:49:14.722Z,14.43
2023-03-06T01:51:48.274Z,13.38
2023-03-06T01:54:19.931Z,11.40
2023-03-06T01:56:51.756Z,14.73
2023-03-06T01:59:21.647Z,9.43
2023-03-06T02:01:51.207Z,10.90
2023-03-06T02:04:20.741Z,9.10
2023-03-06T02:06:50.344Z,8.73
2023-03-06T02:09:19.588Z,9.68
2023-03-06T02:11:50.048Z,9.98
2023-03-06T02:14:19.228Z,9.50
2023-03-06T02:16:48.227Z,9.32
2023-03-06T02:19:23.701Z,13.13
2023-03-06T02:21:52.830Z,11.30
2023-03-06T02:24:25.898Z,10.07
2023-03-06T02:26:56.531Z,11.82
2023-03-06T02:29:27.776Z,10.88
2023-03-06T02:31:59.778Z,10.00
2023-03-06T02:34:47.991Z,11.88
2023-03-06T02:37:16.974Z,10.80
2023-03-06T02:39:48.972Z,11.65
2023-03-06T02:42:24.236Z,12.13
2023-03-06T02:44:54.301Z,11.40
2023-03-06T02:47:23.823Z,12.57
2023-03-06T02:49:53.155Z,11.20
2023-03-06T02:52:22.331Z,15.38
2023-03-06T02:54:51.373Z,13.65
2023-03-06T02:57:20.399Z,12.02
2023-03-06T02:59:50.658Z,14.45
2023-03-06T03:02:22.226Z,13.65
2023-03-06T03:04:51.698Z,11.88
2023-03-06T03:07:21.434Z,14.43
2023-03-06T03:09:50.794Z,12.82
2023-03-06T03:12:20.182Z,13.25
2023-03-06T03:14:50.966Z,12.07
2023-03-06T03:17:19.954Z,13.90
2023-03-06T03:19:49.040Z,13.38
2023-03-06T03:22:19.266Z,11.35
2023-03-06T03:24:48.239Z,14.23
2023-03-06T03:27:17.453Z,12.27
2023-03-06T03:29:46.785Z,15.52
2023-03-06T03:32:17.943Z,12.48
2023-03-06T03:34:47.583Z,13.35
2023-03-06T03:37:16.748Z,12.38
2023-03-06T03:39:45.788Z,13.40
2023-03-06T03:42:15.541Z,15.38
2023-03-06T03:44:44.859Z,13.32
2023-03-06T03:47:14.582Z,14.00
2023-03-06T03:49:45.559Z,17.98
2023-03-06T03:52:14.674Z,16.10
2023-03-06T03:54:43.786Z,16.42
2023-03-06T03:57:12.863Z,13.82
2023-03-06T03:59:47.410Z,15.30
2023-03-06T04:02:31.706Z,14.32
2023-03-06T04:05:14.838Z,15.18
2023-03-06T04:07:45.289Z,14.90
2023-03-06T04:10:15.383Z,15.90
2023-03-06T04:12:45.778Z,14.57
2023-03-06T04:15:15.644Z,16.73
2023-03-06T04:17:44.917Z,15.32
2023-03-06T04:20:19.644Z,15.60
2023-03-06T04:22:50.271Z,16.83
2023-03-06T04:25:20.469Z,15.90
2023-03-06T04:27:49.767Z,16.20
2023-03-06T04:30:21.977Z,16.63
2023-03-06T04:32:51.535Z,18.15
2023-03-06T04:35:22.972Z,15.52
2023-03-06T04:38:01.154Z,16.48
2023-03-06T04:40:33.225Z,17.98
2023-03-06T04:43:02.932Z,17.40
2023-03-06T04:45:32.684Z,17.25
2023-03-06T04:48:02.038Z,17.67
2023-03-06T04:50:33.062Z,16.10
2023-03-06T04:53:03.559Z,16.67
2023-03-06T04:55:34.427Z,15.75
2023-03-06T04:58:03.563Z,16.17
2023-03-06T05:00:32.917Z,19.80
2023-03-06T05:03:02.664Z,18.98
2023-03-06T05:05:33.365Z,15.82
2023-03-06T05:08:02.871Z,12.53
2023-03-06T05:10:31.997Z,17.48
2023-03-06T05:13:01.395Z,16.52
2023-03-06T05:15:30.349Z,22.10
2023-03-06T05:17:59.408Z,17.17
2023-03-06T05:20:28.686Z,17.77
2023-03-06T05:22:59.149Z,19.10
2023-03-06T05:25:28.123Z,17.77
2023-03-06T05:27:57.121Z,15.13
2023-03-06T05:30:26.228Z,16.38
2023-03-06T05:32:56.945Z,19.85
2023-03-06T05:35:26.049Z,22.67
2023-03-06T05:37:55.049Z,17.25
2023-03-06T05:40:25.823Z,16.38
2023-03-06T05:42:54.754Z,21.45
2023-03-06T05:45:23.863Z,17.58
2023-03-06T05:47:53.036Z,19.52
2023-03-06T05:50:22.079Z,18.65
2023-03-06T05:52:51.252Z,19.00
2023-03-06T05:55:21.813Z,18.23
2023-03-06T05:57:53.411Z,19.60
2023-03-06T06:00:23.043Z,17.02
2023-03-06T06:02:52.247Z,14.07
2023-03-06T06:05:21.285Z,18.20
2023-03-06T06:07:50.686Z,18.60
2023-03-06T06:10:20.031Z,20.33
2023-03-06T06:12:48.983Z,16.95
2023-03-06T06:15:19.611Z,15.93
2023-03-06T06:17:48.640Z,15.73
2023-03-06T06:20:17.877Z,16.42
2023-03-06T06:22:46.818Z,18.17
2023-03-06T06:25:15.840Z,15.18
2023-03-06T06:27:44.792Z,16.33
2023-03-06T06:30:14.312Z,16.30
2023-03-06T06:32:44.735Z,16.10
2023-03-06T06:35:13.855Z,19.83
2023-03-06T06:37:43.093Z,18.35
2023-03-06T06:40:12.865Z,17.80
2023-03-06T06:42:42.142Z,15.52
2023-03-06T06:45:11.747Z,15.98
2023-03-06T06:47:41.738Z,14.10
2023-03-06T06:50:14.211Z,18.17
2023-03-06T06:52:43.311Z,18.67
2023-03-06T06:55:13.328Z,17.90
2023-03-06T06:57:44.594Z,16.23
2023-03-06T07:00:14.723Z,16.02
2023-03-06T07:02:44.005Z,15.77
2023-03-06T07:05:17.006Z,15.82
2023-03-06T07:07:46.500Z,19.30
2023-03-06T07:10:17.677Z,16.17
2023-03-06T07:12:50.128Z,15.50
2023-03-06T07:15:20.170Z,12.70
2023-03-06T07:17:50.291Z,12.80
2023-03-06T07:20:21.755Z,13.70
2023-03-06T07:22:52.027Z,13.75
2023-03-06T07:25:21.594Z,14.15
2023-03-06T07:27:54.163Z,12.25
2023-03-06T07:30:24.882Z,13.25
2023-03-06T07:32:54.923Z,14.20
2023-03-06T07:35:26.161Z,20.13
2023-03-06T07:37:55.958Z,14.82
2023-03-06T07:40:25.418Z,14.90
2023-03-06T07:42:57.738Z,12.77
2023-03-06T07:45:38.447Z,12.27
2023-03-06T07:48:07.612Z,13.13
2023-03-06T07:50:39.052Z,12.13
2023-03-06T07:53:11.572Z,15.32
2023-03-06T07:55:42.516Z,11.18
2023-03-06T07:58:11.533Z,10.13
2023-03-06T08:00:40.614Z,11.45
2023-03-06T08:03:10.692Z,10.77
2023-03-06T08:05:41.056Z,11.18
2023-03-06T08:08:09.968Z,11.52
2023-03-06T08:10:39.082Z,11.90
2023-03-06T08:13:08.054Z,9.30
2023-03-06T08:15:37.004Z,9.45
2023-03-06T08:18:06.275Z,13.80
2023-03-06T08:20:35.260Z,11.77
2023-03-06T08:23:05.624Z,8.65
2023-03-06T08:25:34.690Z,8.60
2023-03-06T08:28:03.922Z,11.65
2023-03-06T08:30:32.903Z,10.80
2023-03-06T08:33:02.429Z,9.50
2023-03-06T08:35:31.588Z,9.65
2023-03-06T08:38:00.719Z,9.70
2023-03-06T08:40:31.338Z,9.13
2023-03-06T08:43:00.379Z,9.20
2023-03-06T08:45:31.680Z,7.30
2023-03-06T08:48:01.041Z,8.23
2023-03-06T08:50:30.157Z,8.75
2023-03-06T08:52:59.610Z,8.68
2023-03-06T08:55:29.199Z,6.93
2023-03-06T08:57:59.553Z,7.85
2023-03-06T09:00:28.767Z,7.30
2023-03-06T09:02:57.908Z,7.70
2023-03-06T09:05:27.253Z,7.57
2023-03-06T09:07:58.030Z,6.90
2023-03-06T09:10:28.671Z,8.90
2023-03-06T09:12:59.789Z,5.72
2023-03-06T09:15:30.634Z,8.15
2023-03-06T09:17:59.951Z,7.97
2023-03-06T09:20:29.483Z,6.50
2023-03-06T09:22:58.620Z,5.85
2023-03-06T09:25:27.789Z,4.70
2023-03-06T09:28:10.392Z,8.43
2023-03-06T09:30:42.998Z,6.18
2023-03-06T09:33:12.452Z,5.38
2023-03-06T09:35:43.410Z,7.82
2023-03-06T09:38:12.409Z,5.53
2023-03-06T09:40:48.863Z,8.48
2023-03-06T09:43:22.042Z,8.15
2023-03-06T09:45:54.128Z,6.43
2023-03-06T09:48:24.421Z,5.78
2023-03-06T09:50:58.241Z,6.63
2023-03-06T09:53:39.335Z,7.88
2023-03-06T09:56:13.118Z,7.88
2023-03-06T09:58:44.585Z,6.28
2023-03-06T10:01:18.928Z,8.05
2023-03-06T10:03:50.504Z,7.82
2023-03-06T10:06:25.470Z,5.72
2023-03-06T10:08:57.144Z,6.00
2023-03-06T10:11:28.528Z,6.15
2023-03-06T10:14:03.029Z,6.35
2023-03-06T10:16:34.498Z,5.55
2023-03-06T10:19:05.080Z,8.07
2023-03-06T10:21:41.746Z,6.32
2023-03-06T10:24:34.862Z,9.07
2023-03-06T10:27:11.253Z,6.55
2023-03-06T10:30:01.266Z,7.93
2023-03-06T10:32:48.275Z,5.13
2023-03-06T10:35:21.180Z,6.93
2023-03-06T10:37:51.319Z,6.38
2023-03-06T10:40:22.450Z,6.35
2023-03-06T10:43:09.332Z,5.20
2023-03-06T10:45:51.639Z,7.20
2023-03-06T10:48:29.156Z,9.02
2023-03-06T10:51:19.734Z,6.93
2023-03-06T10:53:56.755Z,7.32
2023-03-06T10:56:32.439Z,8.93
2023-03-06T10:59:13.675Z,8.20
2023-03-06T11:01:44.481Z,8.32
2023-03-06T11:04:25.761Z,6.70
2023-03-06T11:07:10.729Z,7.50
2023-03-06T11:09:40.389Z,7.47
2023-03-06T11:12:21.127Z,8.48
2023-03-06T11:15:08.658Z,6.65
2023-03-06T11:17:39.939Z,5.80
2023-03-06T11:20:18.569Z,8.18
2023-03-06T11:22:49.640Z,5.60
2023-03-06T11:25:22.230Z,6.05
2023-03-06T11:27:56.770Z,5.38
2023-03-06T11:30:28.650Z,7.18
2023-03-06T11:33:01.494Z,8.23
2023-03-06T11:35:36.176Z,5.93
2023-03-06T11:38:07.722Z,6.78
2023-03-06T11:40:42.450Z,5.97
2023-03-06T11:43:19.441Z,4.90
2023-03-06T11:45:57.611Z,4.35
2023-03-06T11:48:29.955Z,5.53
2023-03-06T11:51:06.472Z,4.47
2023-03-06T11:53:39.618Z,4.35
2023-03-06T11:56:16.728Z,3.85
2023-03-06T11:58:59.079Z,6.03
2023-03-06T12:01:33.970Z,6.70
2023-03-06T12:04:19.745Z,6.68
2023-03-06T12:06:56.649Z,5.43
2023-03-06T12:09:30.459Z,4.63
2023-03-06T12:12:07.240Z,5.38
2023-03-06T12:14:42.483Z,4.85
2023-03-06T12:17:20.294Z,3.28
2023-03-06T12:20:16.726Z,4.18
2023-03-06T12:22:57.668Z,6.93
2023-03-06T12:25:36.002Z,4.85
2023-03-06T12:28:14.575Z,4.47
2023-03-06T12:31:09.345Z,6.47
2023-03-06T12:33:46.616Z,5.68
2023-03-06T12:36:26.602Z,4.20
2023-03-06T12:39:01.934Z,4.30
2023-03-06T12:41:37.426Z,18.08
2023-03-06T12:44:22.261Z,4.10
2023-03-06T12:46:58.671Z,4.10
2023-03-06T12:49:39.118Z,4.00
2023-03-06T12:52:09.793Z,4.90
2023-03-06T12:54:42.557Z,2.97
2023-03-06T12:57:12.555Z,2.08
2023-03-06T12:59:44.653Z,3.60
2023-03-06T13:02:25.140Z,2.65
2023-03-06T13:05:06.598Z,3.58
2023-03-06T13:07:45.462Z,3.63
2023-03-06T13:10:23.492Z,2.92
2023-03-06T13:12:57.563Z,2.78
2023-03-06T13:15:34.776Z,4.47
2023-03-06T13:18:04.685Z,3.47
2023-03-06T13:20:42.877Z,2.50
2023-03-06T13:23:31.223Z,3.67
2023-03-06T13:26:04.478Z,4.38
2023-03-06T13:28:45.584Z,4.75
2023-03-06T13:31:27.776Z,3.42
2023-03-06T13:34:00.189Z,3.53
2023-03-06T13:36:30.673Z,3.58
2023-03-06T13:39:01.645Z,2.58
2023-03-06T13:41:51.704Z,3.05
2023-03-06T13:44:49.642Z,5.25
2023-03-06T13:48:02.807Z,2.70
2023-03-06T13:50:36.516Z,3.78
2023-03-06T13:53:24.001Z,3.42
2023-03-06T13:56:00.796Z,4.03
2023-03-06T13:58:39.703Z,2.58
2023-03-06T14:01:26.903Z,4.10
2023-03-06T14:04:15.618Z,4.50
2023-03-06T14:06:53.494Z,3.47
2023-03-06T14:09:29.335Z,3.70
2023-03-06T14:12:01.485Z,4.88
2023-03-06T14:14:34.389Z,4.88
2023-03-06T14:17:05.245Z,4.13
2023-03-06T14:19:39.952Z,3.60
2023-03-06T14:22:15.085Z,2.28
2023-03-06T14:24:46.553Z,3.85
2023-03-06T14:27:19.596Z,2.45
2023-03-06T14:29:49.936Z,2.65
2023-03-06T14:32:21.314Z,2.75
2023-03-06T14:34:52.421Z,2.85
2023-03-06T14:37:24.650Z,3.80
2023-03-06T14:39:56.197Z,2.50
2023-03-06T14:42:26.544Z,2.72
2023-03-06T14:45:02.865Z,3.42
2023-03-06T14:47:34.766Z,2.78
2023-03-06T14:50:24.920Z,3.78
2023-03-06T14:52:57.837Z,1.88
2023-03-06T14:55:28.781Z,3.40
2023-03-06T14:58:00.778Z,1.92
2023-03-06T15:03:00.968Z,3.22
2023-03-06T15:05:32.624Z,2.92
2023-03-06T15:08:07.326Z,2.47
2023-03-06T15:10:38.803Z,4.35
2023-03-06T15:13:13.011Z,3.58
2023-03-06T15:15:42.921Z,4.15
2023-03-06T15:18:29.375Z,3.33
2023-03-06T15:21:13.878Z,4.25
2023-03-06T15:23:44.101Z,2.38
2023-03-06T15:26:40.624Z,4.50
2023-03-06T15:29:24.004Z,3.28
2023-03-06T15:31:53.386Z,3.75
2023-03-06T15:34:25.485Z,4.25
2023-03-06T15:36:57.491Z,3.08
2023-03-06T15:42:00.504Z,2.80
2023-03-06T15:44:31.627Z,5.88
2023-03-06T15:47:08.858Z,2.88
2023-03-06T15:49:40.337Z,4.70
2023-03-06T15:52:11.645Z,2.95
2023-03-06T15:54:41.028Z,4.60
2023-03-06T15:57:15.015Z,2.30
2023-03-06T15:59:45.967Z,2.83
2023-03-06T16:02:20.005Z,4.95
2023-03-06T16:04:54.180Z,4.85
2023-03-06T16:07:28.653Z,3.63
2023-03-06T16:09:59.008Z,3.20
2023-03-06T16:12:30.372Z,2.70
2023-03-06T16:15:01.032Z,5.53
2023-03-06T16:17:30.901Z,2.10
2023-03-06T16:20:00.357Z,2.17
2023-03-06T16:22:31.172Z,3.70
2023-03-06T16:25:00.826Z,2.00
2023-03-06T16:27:31.027Z,2.40
2023-03-06T16:30:03.176Z,2.50
2023-03-06T16:32:33.553Z,3.67
2023-03-06T16:35:04.059Z,1.35
2023-03-06T16:37:42.195Z,1.25
2023-03-06T16:40:19.519Z,3.90
2023-03-06T16:42:49.239Z,1.80
2023-03-06T16:45:21.259Z,3.67
2023-03-06T16:50:29.159Z,1.98
2023-03-06T16:53:05.191Z,6.15
2023-03-06T16:55:36.106Z,3.42
2023-03-06T16:58:06.962Z,2.42
2023-03-06T17:00:37.221Z,1.58
2023-03-06T17:03:06.821Z,2.50
2023-03-06T17:05:37.624Z,2.05
2023-03-06T17:08:11.566Z,2.05
2023-03-06T17:10:43.216Z,1.77
2023-03-06T17:13:13.617Z,2.88
2023-03-06T17:15:45.201Z,3.15
2023-03-06T17:18:16.775Z,1.80
2023-03-06T17:20:51.860Z,3.83
2023-03-06T17:23:26.416Z,3.13
2023-03-06T17:26:25.413Z,4.28
2023-03-06T17:29:00.433Z,1.95
2023-03-06T17:31:36.441Z,1.60
2023-03-06T17:34:09.965Z,1.77
2023-03-06T17:36:39.044Z,3.35
2023-03-06T17:39:13.137Z,2.05
2023-03-06T17:41:44.664Z,1.52
2023-03-06T17:44:16.757Z,1.88
2023-03-06T17:46:48.555Z,2.63
2023-03-06T17:49:19.697Z,2.03
2023-03-06T17:51:49.194Z,1.90
2023-03-06T17:54:21.056Z,1.92
2023-03-06T17:59:28.347Z,2.53
2023-03-06T18:01:59.108Z,2.20
2023-03-06T18:04:28.996Z,1.58
2023-03-06T18:06:59.126Z,2.22
2023-03-06T18:09:30.766Z,3.80
2023-03-06T18:12:00.885Z,3.60
2023-03-06T18:14:30.100Z,2.15
2023-03-06T18:17:00.668Z,4.18
2023-03-06T18:19:30.003Z,2.05
2023-03-06T18:22:00.769Z,3.45
2023-03-06T18:24:31.886Z,1.98
2023-03-06T18:27:04.164Z,3.17
2023-03-06T18:29:33.437Z,2.15
2023-03-06T18:32:03.569Z,2.65
2023-03-06T18:34:33.068Z,3.95
2023-03-06T18:37:02.951Z,2.78
2023-03-06T18:39:35.743Z,2.25
2023-03-06T18:42:08.008Z,3.03
2023-03-06T18:44:37.337Z,3.10
2023-03-06T18:47:08.596Z,4.75
2023-03-06T18:49:39.946Z,3.10
2023-03-06T18:54:40.659Z,2.78
2023-03-06T18:57:11.477Z,4.43
2023-03-06T18:59:41.751Z,2.08
2023-03-06T19:02:13.010Z,2.75
2023-03-06T19:04:43.020Z,2.58
2023-03-06T19:07:12.330Z,2.47
2023-03-06T19:09:44.449Z,2.33
2023-03-06T19:12:14.010Z,3.80
2023-03-06T19:14:43.443Z,1.85
2023-03-06T19:17:12.783Z,3.97
2023-03-06T19:19:42.326Z,2.55
2023-03-06T19:22:13.914Z,5.05
2023-03-06T19:24:46.958Z,3.28
2023-03-06T19:27:19.607Z,3.15
2023-03-06T19:29:50.009Z,1.92
2023-03-06T19:32:25.634Z,2.33
2023-03-06T19:34:59.393Z,3.28
2023-03-06T19:37:31.089Z,1.77
2023-03-06T19:40:12.061Z,2.88
2023-03-06T19:42:41.893Z,2.20
2023-03-06T19:48:01.065Z,2.40
2023-03-06T19:50:30.537Z,4.53
2023-03-06T19:53:01.101Z,2.10
2023-03-06T19:55:32.512Z,2.88
2023-03-06T19:58:01.882Z,4.30
2023-03-06T20:00:31.608Z,1.10
2023-03-06T20:03:01.134Z,0.60
2023-03-06T20:05:31.797Z,0.50
2023-03-06T20:08:02.142Z,0.55
2023-03-06T20:10:33.869Z,0.73
2023-03-06T20:13:04.141Z,2.97
2023-03-06T20:15:43.586Z,0.40
2023-03-06T20:18:14.479Z,0.80
2023-03-06T20:20:44.187Z,2.95
2023-03-06T20:23:16.600Z,1.55
2023-03-06T20:25:48.798Z,0.88
2023-03-06T20:30:52.692Z,2.05
2023-03-06T20:33:23.391Z,2.92
2023-03-06T20:35:55.863Z,1.52
2023-03-06T20:38:25.660Z,3.33
2023-03-06T20:40:57.960Z,2.67
2023-03-06T20:43:27.704Z,2.78
2023-03-06T20:45:58.156Z,3.08
2023-03-06T20:48:30.459Z,5.43
2023-03-06T20:51:06.898Z,4.60
2023-03-06T20:53:36.907Z,6.38
2023-03-06T20:56:12.987Z,4.30
2023-03-06T20:58:42.907Z,3.75
2023-03-06T21:01:20.070Z,3.70
2023-03-06T21:03:50.342Z,4.47
2023-03-06T21:06:20.211Z,3.22
2023-03-06T21:08:51.166Z,2.63
2023-03-06T21:11:21.899Z,2.55
2023-03-06T21:13:51.293Z,4.07
2023-03-06T21:16:23.339Z,3.33
2023-03-06T21:18:53.540Z,6.38
2023-03-06T21:21:24.461Z,4.53
2023-03-06T21:23:56.453Z,3.27
2023-03-06T21:26:29.391Z,3.33
2023-03-06T21:28:59.405Z,5.80
2023-03-06T21:31:30.155Z,3.75
2023-03-06T21:34:02.538Z,2.88
2023-03-06T21:36:33.742Z,3.00
2023-03-06T21:39:06.215Z,6.28
2023-03-06T21:41:38.358Z,3.13
2023-03-06T21:44:09.174Z,5.10
2023-03-06T21:46:39.240Z,3.38
2023-03-06T21:49:08.850Z,3.20
2023-03-06T21:51:38.035Z,5.35
2023-03-06T21:54:10.209Z,4.95
2023-03-06T21:56:41.573Z,2.92
2023-03-06T21:59:11.045Z,3.90
2023-03-06T22:01:42.795Z,4.45
2023-03-06T22:06:44.556Z,4.40
2023-03-06T22:09:16.381Z,3.53
2023-03-06T22:14:24.283Z,3.10
2023-03-06T22:16:53.934Z,3.50
2023-03-06T22:19:23.708Z,5.03
2023-03-06T22:21:53.354Z,4.68
2023-03-06T22:24:23.442Z,2.75
2023-03-06T22:26:52.845Z,3.20
2023-03-06T22:29:24.612Z,4.20
2023-03-06T22:34:24.304Z,4.60
2023-03-06T22:36:55.958Z,4.07
2023-03-06T22:39:26.077Z,6.68
2023-03-06T22:41:57.065Z,2.83
2023-03-06T22:44:28.376Z,6.53
2023-03-06T22:46:59.016Z,7.20
2023-03-06T22:49:29.918Z,3.45
2023-03-06T22:51:59.309Z,3.05
2023-03-06T22:54:28.785Z,3.95
2023-03-06T22:56:58.465Z,3.05
2023-03-06T22:59:33.117Z,3.03
2023-03-06T23:02:04.275Z,4.73
2023-03-06T23:04:35.998Z,3.95
2023-03-06T23:07:06.849Z,3.33
2023-03-06T23:09:36.855Z,3.08
2023-03-06T23:12:25.188Z,3.53
2023-03-06T23:15:14.752Z,3.20
2023-03-06T23:18:03.553Z,2.58
2023-03-06T23:20:52.261Z,2.70
2023-03-06T23:23:40.661Z,4.43
2023-03-06T23:26:14.550Z,2.95
2023-03-06T23:28:44.557Z,4.70
2023-03-06T23:31:16.955Z,4.47
2023-03-06T23:33:46.797Z,3.25
2023-03-06T23:36:17.394Z,3.25
2023-03-06T23:38:46.993Z,2.72
2023-03-06T23:41:18.244Z,5.72
2023-03-06T23:43:47.875Z,2.22
2023-03-06T23:46:19.201Z,2.30
2023-03-06T23:48:48.939Z,2.80
2023-03-06T23:51:19.951Z,2.17
2023-03-06T23:53:50.375Z,2.80
2023-03-06T23:56:20.440Z,2.85
2023-03-06T23:58:51.458Z,2.63
